createdAt,value
2022-09-20T00:04:45.523Z,12.37
2022-09-20T00:09:36.201Z,12.43
2022-09-20T00:14:27.756Z,12.46
2022-09-20T00:19:24.269Z,12.51
2022-09-20T00:24:16.060Z,12.46
2022-09-20T00:29:08.020Z,12.50
2022-09-20T00:34:11.075Z,12.49
2022-09-20T00:39:07.937Z,12.54
2022-09-20T00:43:59.026Z,12.58
2022-09-20T00:48:49.943Z,12.63
2022-09-20T00:53:43.700Z,12.60
2022-09-20T00:58:41.300Z,12.56
2022-09-20T01:03:34.189Z,12.48
2022-09-20T01:08:29.213Z,12.45
2022-09-20T01:13:21.963Z,12.47
2022-09-20T01:18:15.788Z,12.41
2022-09-20T01:23:20.110Z,12.33
2022-09-20T01:28:13.375Z,12.30
2022-09-20T01:33:14.369Z,12.33
2022-09-20T01:38:22.147Z,12.31
2022-09-20T01:43:21.550Z,12.31
2022-09-20T01:48:21.845Z,12.30
2022-09-20T01:53:43.499Z,12.28
2022-09-20T01:59:25.158Z,12.18
2022-09-20T02:04:57.205Z,12.13
2022-09-20T02:10:19.473Z,12.07
2022-09-20T02:15:28.279Z,12.04
2022-09-20T02:20:35.146Z,12.04
2022-09-20T02:25:44.631Z,12.03
2022-09-20T02:30:51.400Z,12.02
2022-09-20T02:36:01.617Z,11.98
2022-09-20T02:41:14.536Z,11.98
2022-09-20T02:46:18.878Z,11.97
2022-09-20T02:51:18.742Z,11.93
2022-09-20T02:56:18.022Z,11.88
2022-09-20T03:01:29.250Z,11.80
2022-09-20T03:06:36.250Z,11.76
2022-09-20T03:11:35.180Z,11.71
2022-09-20T03:16:37.665Z,11.69
2022-09-20T03:21:39.065Z,11.65
2022-09-20T03:26:41.270Z,11.61
2022-09-20T03:31:48.305Z,11.59
2022-09-20T03:36:53.243Z,11.56
2022-09-20T03:41:58.121Z,11.57
2022-09-20T03:46:55.262Z,11.57
2022-09-20T03:51:52.133Z,11.57
2022-09-20T03:57:16.060Z,11.53
2022-09-20T04:02:27.485Z,11.46
2022-09-20T04:07:24.883Z,11.49
2022-09-20T04:12:26.956Z,11.47
2022-09-20T04:17:34.797Z,11.53
2022-09-20T04:22:28.314Z,11.57
2022-09-20T04:27:24.781Z,11.57
2022-09-20T04:32:24.823Z,11.59
2022-09-20T04:37:26.148Z,11.64
2022-09-20T04:42:45.298Z,11.58
2022-09-20T04:48:13.649Z,11.56
2022-09-20T04:53:44.722Z,11.57
2022-09-20T04:58:51.369Z,11.53
2022-09-20T05:04:11.118Z,11.55
2022-09-20T05:09:29.276Z,11.58
2022-09-20T05:14:51.584Z,11.62
2022-09-20T05:20:01.868Z,11.62
2022-09-20T05:25:43.449Z,11.66
2022-09-20T05:30:41.067Z,11.66
2022-09-20T05:35:41.942Z,11.67
2022-09-20T05:40:40.286Z,11.72
2022-09-20T05:46:01.877Z,11.76
2022-09-20T05:51:03.856Z,11.78
2022-09-20T05:56:09.552Z,11.77
2022-09-20T06:01:05.947Z,11.83
2022-09-20T06:06:07.118Z,11.82
2022-09-20T06:11:21.384Z,11.84
2022-09-20T06:16:20.319Z,11.91
2022-09-20T06:21:27.019Z,11.90
2022-09-20T06:26:23.548Z,11.92
2022-09-20T06:31:15.733Z,11.95
2022-09-20T06:36:22.266Z,12.02
2022-09-20T06:41:28.781Z,12.08
2022-09-20T06:46:21.240Z,12.16
2022-09-20T06:51:12.753Z,12.22
2022-09-20T06:56:04.986Z,12.30
2022-09-20T07:00:58.418Z,12.35
2022-09-20T07:05:49.019Z,12.43
2022-09-20T07:10:40.704Z,12.48
2022-09-20T07:15:33.620Z,12.53
2022-09-20T07:20:27.013Z,12.50
2022-09-20T07:25:18.269Z,12.46
2022-09-20T07:30:13.915Z,12.51
2022-09-20T07:35:04.644Z,12.56
2022-09-20T07:39:57.821Z,12.67
2022-09-20T07:44:51.473Z,12.76
2022-09-20T07:49:41.806Z,12.82
2022-09-20T07:54:32.566Z,12.91
2022-09-20T07:59:28.315Z,13.09
2022-09-20T08:04:19.093Z,13.22
2022-09-20T08:09:11.306Z,13.31
2022-09-20T08:14:05.205Z,13.37
2022-09-20T08:19:00.833Z,13.36
2022-09-20T08:23:54.187Z,13.39
2022-09-20T08:28:47.975Z,13.41
2022-09-20T08:33:39.056Z,13.36
2022-09-20T08:43:46.815Z,13.47
2022-09-20T08:48:38.942Z,13.65
2022-09-20T08:53:32.269Z,13.94
2022-09-20T08:58:21.884Z,14.20
2022-09-20T09:03:16.968Z,14.51
2022-09-20T09:08:16.224Z,14.81
2022-09-20T09:13:09.725Z,14.84
2022-09-20T09:18:01.513Z,14.90
2022-09-20T09:23:00.873Z,14.89
2022-09-20T09:27:57.172Z,14.92
2022-09-20T09:32:51.035Z,15.37
2022-09-20T09:37:40.863Z,15.50
2022-09-20T09:42:33.187Z,15.36
2022-09-20T09:47:31.298Z,15.27
2022-09-20T09:52:26.379Z,15.06
2022-09-20T09:57:46.748Z,15.32
2022-09-20T10:03:12.007Z,15.90
2022-09-20T10:08:18.542Z,16.64
2022-09-20T10:13:21.487Z,17.17
2022-09-20T10:18:36.559Z,17.61
2022-09-20T10:24:02.486Z,18.15
2022-09-20T10:29:05.793Z,18.61
2022-09-20T10:34:21.802Z,18.41
2022-09-20T10:39:24.902Z,18.49
2022-09-20T10:44:32.350Z,18.42
2022-09-20T10:49:38.852Z,18.35
2022-09-20T10:54:50.039Z,18.40
2022-09-20T10:59:49.232Z,18.04
2022-09-20T11:05:13.276Z,17.35
2022-09-20T11:10:17.513Z,16.84
2022-09-20T11:15:18.740Z,16.45
2022-09-20T11:20:21.378Z,16.15
2022-09-20T11:25:24.977Z,15.79
2022-09-20T11:30:21.442Z,15.50
2022-09-20T11:35:34.348Z,15.36
2022-09-20T11:40:35.755Z,15.29
2022-09-20T11:45:28.678Z,15.30
2022-09-20T11:50:53.764Z,15.44
2022-09-20T11:55:54.420Z,15.60
2022-09-20T12:00:48.299Z,16.00
2022-09-20T12:05:42.002Z,16.27
2022-09-20T12:10:35.504Z,16.59
2022-09-20T12:15:34.402Z,17.19
2022-09-20T12:21:03.926Z,17.24
2022-09-20T12:26:06.786Z,17.03
2022-09-20T12:31:29.880Z,16.86
2022-09-20T12:36:23.695Z,16.74
2022-09-20T12:41:26.199Z,16.61
2022-09-20T12:46:32.885Z,16.52
2022-09-20T12:51:48.900Z,16.45
2022-09-20T12:56:46.668Z,16.39
2022-09-20T13:01:43.974Z,16.41
2022-09-20T13:06:37.278Z,16.46
2022-09-20T13:11:31.672Z,16.34
2022-09-20T13:16:25.936Z,16.41
2022-09-20T13:21:17.151Z,16.43
2022-09-20T13:26:16.376Z,16.47
2022-09-20T13:31:28.543Z,16.50
2022-09-20T13:36:30.416Z,16.52
2022-09-20T13:41:24.112Z,16.59
2022-09-20T13:46:19.884Z,16.62
2022-09-20T13:51:21.662Z,16.69
2022-09-20T13:56:17.345Z,16.78
2022-09-20T14:01:25.401Z,17.03
2022-09-20T14:06:18.067Z,17.22
2022-09-20T14:11:19.115Z,17.32
2022-09-20T14:16:13.520Z,17.42
2022-09-20T14:21:04.947Z,17.42
2022-09-20T14:26:24.917Z,17.51
2022-09-20T14:31:22.469Z,17.53
2022-09-20T14:36:18.751Z,17.54
2022-09-20T14:41:09.570Z,17.63
2022-09-20T14:46:03.639Z,17.79
2022-09-20T14:51:22.681Z,17.89
2022-09-20T14:56:15.354Z,17.88
2022-09-20T15:01:09.970Z,17.82
2022-09-20T15:06:01.127Z,17.78
2022-09-20T15:10:56.618Z,17.60
2022-09-20T15:15:49.634Z,17.42
2022-09-20T15:20:42.504Z,17.47
2022-09-20T15:25:34.110Z,17.41
2022-09-20T15:30:26.814Z,17.35
2022-09-20T15:35:16.751Z,17.13
2022-09-20T15:40:10.225Z,17.00
2022-09-20T15:45:00.519Z,16.97
2022-09-20T15:49:55.266Z,16.98
2022-09-20T15:54:48.450Z,16.99
2022-09-20T15:59:44.736Z,16.98
2022-09-20T16:04:36.593Z,17.00
2022-09-20T16:09:30.108Z,17.00
2022-09-20T16:14:20.437Z,16.94
2022-09-20T16:19:23.150Z,16.92
2022-09-20T16:24:16.247Z,16.87
2022-09-20T16:29:08.686Z,16.54
2022-09-20T16:33:58.868Z,16.41
2022-09-20T16:38:48.989Z,16.32
2022-09-20T16:43:41.693Z,16.26
2022-09-20T16:48:36.468Z,16.24
2022-09-20T16:53:26.771Z,16.13
2022-09-20T16:58:16.750Z,16.01
2022-09-20T17:03:06.708Z,15.91
2022-09-20T17:08:04.937Z,15.82
2022-09-20T17:12:58.473Z,15.77
2022-09-20T17:17:50.620Z,15.72
2022-09-20T17:22:40.120Z,15.62
2022-09-20T17:27:33.591Z,15.52
2022-09-20T17:32:23.128Z,15.42
2022-09-20T17:37:12.579Z,15.31
2022-09-20T17:42:02.179Z,15.20
2022-09-20T17:46:55.058Z,15.13
2022-09-20T17:51:45.160Z,15.06
2022-09-20T17:56:35.740Z,14.99
2022-09-20T18:01:26.014Z,14.92
2022-09-20T18:06:19.768Z,14.87
2022-09-20T18:11:09.483Z,14.79
2022-09-20T18:15:59.150Z,14.71
2022-09-20T18:20:48.573Z,14.63
2022-09-20T18:25:52.732Z,14.55
2022-09-20T18:30:42.072Z,14.38
2022-09-20T18:35:31.403Z,14.31
2022-09-20T18:40:23.023Z,14.25
2022-09-20T18:45:16.591Z,14.19
2022-09-20T18:50:10.496Z,14.13
2022-09-20T18:55:01.644Z,14.00
2022-09-20T18:59:55.259Z,13.87
2022-09-20T19:05:03.713Z,13.77
2022-09-20T19:10:01.829Z,13.71
2022-09-20T19:15:00.069Z,13.66
2022-09-20T19:19:53.391Z,13.53
2022-09-20T19:24:50.104Z,13.45
2022-09-20T19:29:42.680Z,13.43
2022-09-20T19:34:33.409Z,13.33
2022-09-20T19:39:26.844Z,13.27
2022-09-20T19:44:25.835Z,13.23
2022-09-20T19:49:19.548Z,13.18
2022-09-20T19:54:12.046Z,13.07
2022-09-20T19:59:01.649Z,13.00
2022-09-20T20:03:51.400Z,12.95
2022-09-20T20:08:50.773Z,12.91
2022-09-20T20:13:59.897Z,12.83
2022-09-20T20:18:57.719Z,12.71
2022-09-20T20:23:55.711Z,12.65
2022-09-20T20:28:45.051Z,12.59
2022-09-20T20:33:34.681Z,12.48
2022-09-20T20:38:29.727Z,12.41
2022-09-20T20:43:21.749Z,12.36
2022-09-20T20:48:14.372Z,12.34
2022-09-20T20:53:06.988Z,12.30
2022-09-20T20:57:58.521Z,12.24
2022-09-20T21:02:50.903Z,12.20
2022-09-20T21:07:40.783Z,12.18
2022-09-20T21:12:31.086Z,12.15
2022-09-20T21:17:21.112Z,12.14
2022-09-20T21:22:13.773Z,12.12
2022-09-20T21:27:04.725Z,12.04
2022-09-20T21:31:54.203Z,12.01
2022-09-20T21:36:44.780Z,11.99
2022-09-20T21:41:37.737Z,11.95
2022-09-20T21:46:28.340Z,11.92
2022-09-20T21:51:18.921Z,11.90
2022-09-20T21:56:09.095Z,11.91
2022-09-20T22:01:02.230Z,11.90
2022-09-20T22:05:51.668Z,11.91
2022-09-20T22:10:41.019Z,11.88
2022-09-20T22:15:30.353Z,11.88
2022-09-20T22:20:27.877Z,11.86
2022-09-20T22:25:18.141Z,11.88
2022-09-20T22:30:08.403Z,11.88
2022-09-20T22:34:59.467Z,11.85
2022-09-20T22:39:51.773Z,11.85
2022-09-20T22:44:41.383Z,11.86
2022-09-20T22:49:30.961Z,11.89
2022-09-20T22:54:20.549Z,11.87
2022-09-20T22:59:13.756Z,11.86
2022-09-20T23:04:04.499Z,11.87
2022-09-20T23:08:55.060Z,11.87
2022-09-20T23:13:44.642Z,11.85
2022-09-20T23:18:37.157Z,11.85
2022-09-20T23:23:26.767Z,11.81
2022-09-20T23:28:16.368Z,11.86
2022-09-20T23:33:05.953Z,11.89
2022-09-20T23:37:58.383Z,11.91
2022-09-20T23:42:48.180Z,11.91
2022-09-20T23:47:37.790Z,11.92
2022-09-20T23:52:27.265Z,11.94
2022-09-20T23:57:19.487Z,11.95
